Time,TemperatureF,DewpointF,PressureIn,WindDirection,WindDirectionDegrees,WindSpeedMPH,WindSpeedGustMPH,Humidity,HourlyPrecipIn,Conditions,Clouds,dailyrainin,SolarRadiationWatts/m^2,SoftwareType,DateUTC
2013-03-05 00:02:00,43.0,20.0,-100.00,NW,310,3.0,4.0,40,0.00,,,0.00,0.000000,,2013-03-05 05:02:00,
2013-03-05 00:32:00,41.0,22.0,-100.00,NW,308,4.0,6.0,47,0.00,,,0.00,0.000000,,2013-03-05 05:32:00,
2013-03-05 00:42:00,41.0,22.0,-100.00,NW,308,4.0,6.0,47,0.00,,,0.00,0.000000,,2013-03-05 05:42:00,
2013-03-05 00:52:00,41.0,22.0,-100.00,NW,308,4.0,6.0,47,0.00,,,0.00,0.000000,,2013-03-05 05:52:00,
2013-03-05 01:01:00,41.0,22.0,-100.00,NW,308,4.0,6.0,47,0.00,,,0.00,0.000000,,2013-03-05 06:01:00,
2013-03-05 01:32:00,40.0,25.0,-100.00,WNW,282,3.0,7.0,55,0.00,,,0.00,0.000000,,2013-03-05 06:32:00,
2013-03-05 01:42:00,40.0,25.0,-100.00,WNW,282,3.0,7.0,55,0.00,,,0.00,0.000000,,2013-03-05 06:42:00,
2013-03-05 01:52:00,40.0,25.0,-100.00,WNW,282,3.0,7.0,55,0.00,,,0.00,0.000000,,2013-03-05 06:52:00,
2013-03-05 02:01:00,40.0,25.0,-100.00,WNW,282,3.0,7.0,55,0.00,,,0.00,0.000000,,2013-03-05 07:01:00,
2013-03-05 02:32:00,42.0,25.0,-100.00,West,273,3.0,5.0,50,0.00,,,0.00,0.000000,,2013-03-05 07:32:00,
2013-03-05 02:42:00,42.0,25.0,-100.00,West,273,3.0,5.0,50,0.00,,,0.00,0.000000,,2013-03-05 07:42:00,
2013-03-05 02:52:00,42.0,25.0,-100.00,West,273,3.0,5.0,50,0.00,,,0.00,0.000000,,2013-03-05 07:52:00,
2013-03-05 03:02:00,42.0,25.0,-100.00,West,273,3.0,5.0,50,0.00,,,0.00,0.000000,,2013-03-05 08:02:00,
2013-03-05 04:32:00,40.0,24.0,-100.00,WNW,301,3.0,5.0,52,-99.99,,,0.00,0.000000,,2013-03-05 09:32:00,
2013-03-05 04:43:00,40.0,24.0,-100.00,WNW,301,3.0,5.0,52,-99.99,,,0.00,0.000000,,2013-03-05 09:43:00,
2013-03-05 04:52:00,40.0,24.0,-100.00,WNW,301,3.0,5.0,52,-99.99,,,0.00,0.000000,,2013-03-05 09:52:00,
2013-03-05 05:01:00,40.0,24.0,-100.00,WNW,301,3.0,5.0,52,-99.99,,,0.00,0.000000,,2013-03-05 10:01:00,
2013-03-05 05:32:00,44.0,28.0,-100.00,SW,227,1.0,3.0,53,0.00,,,0.00,0.000000,,2013-03-05 10:32:00,
2013-03-05 05:42:00,44.0,28.0,-100.00,SW,227,1.0,3.0,53,0.00,,,0.00,0.000000,,2013-03-05 10:42:00,
2013-03-05 05:52:00,44.0,28.0,-100.00,SW,227,1.0,3.0,53,0.00,,,0.00,0.000000,,2013-03-05 10:52:00,
2013-03-05 06:02:00,44.0,28.0,-100.00,SW,227,1.0,3.0,53,0.00,,,0.00,0.000000,,2013-03-05 11:02:00,
2013-03-05 06:32:00,43.0,26.0,-100.00,SE,144,1.0,2.0,51,0.00,,,0.00,0.000000,,2013-03-05 11:32:00,
2013-03-05 06:42:00,43.0,26.0,-100.00,SE,144,1.0,2.0,51,0.00,,,0.00,0.000000,,2013-03-05 11:42:00,
2013-03-05 06:52:00,43.0,26.0,-100.00,SE,144,1.0,2.0,51,0.00,,,0.00,0.000000,,2013-03-05 11:52:00,
2013-03-05 07:02:00,43.0,26.0,-100.00,SE,144,1.0,2.0,51,0.00,,,0.00,0.000000,,2013-03-05 12:02:00,
2013-03-05 07:32:00,42.0,27.0,-100.00,West,267,1.0,2.0,55,0.00,,,0.00,0.000000,,2013-03-05 12:32:00,
2013-03-05 07:42:00,42.0,27.0,-100.00,West,267,1.0,2.0,55,0.00,,,0.00,0.000000,,2013-03-05 12:42:00,
2013-03-05 07:53:00,42.0,27.0,-100.00,West,267,1.0,2.0,55,0.00,,,0.00,0.000000,,2013-03-05 12:53:00,
2013-03-05 08:02:00,42.0,27.0,-100.00,West,267,1.0,2.0,55,0.00,,,0.00,0.000000,,2013-03-05 13:02:00,
2013-03-05 08:32:00,40.0,37.0,-100.00,WNW,296,1.0,3.0,88,0.01,,,0.01,9.000000,,2013-03-05 13:32:00,
2013-03-05 08:42:00,40.0,37.0,-100.00,WNW,296,1.0,3.0,88,0.01,,,0.01,9.000000,,2013-03-05 13:42:00,
2013-03-05 08:52:00,40.0,37.0,-100.00,WNW,296,1.0,3.0,88,0.01,,,0.01,9.000000,,2013-03-05 13:52:00,
2013-03-05 09:02:00,40.0,37.0,-100.00,WNW,296,1.0,3.0,88,0.01,,,0.01,9.000000,,2013-03-05 14:02:00,
2013-03-05 09:32:00,40.0,38.0,-100.00,West,270,1.0,3.0,92,0.03,,,0.04,25.000000,,2013-03-05 14:32:00,
2013-03-05 09:42:00,40.0,38.0,-100.00,West,270,1.0,3.0,92,0.03,,,0.04,25.000000,,2013-03-05 14:42:00,
2013-03-05 09:52:00,40.0,38.0,-100.00,West,270,1.0,3.0,92,0.03,,,0.04,25.000000,,2013-03-05 14:52:00,
2013-03-05 10:02:00,40.0,38.0,-100.00,West,270,1.0,3.0,92,0.03,,,0.04,25.000000,,2013-03-05 15:02:00,
2013-03-05 10:32:00,41.0,39.0,-100.00,West,275,2.0,3.0,93,0.00,,,0.04,51.000000,,2013-03-05 15:32:00,
2013-03-05 10:42:00,41.0,39.0,-100.00,West,275,2.0,3.0,93,0.00,,,0.04,51.000000,,2013-03-05 15:42:00,
2013-03-05 10:52:00,41.0,39.0,-100.00,West,275,2.0,3.0,93,0.00,,,0.04,51.000000,,2013-03-05 15:52:00,
2013-03-05 11:02:00,41.0,39.0,-100.00,West,275,2.0,3.0,93,0.00,,,0.04,51.000000,,2013-03-05 16:02:00,
2013-03-05 11:32:00,42.0,41.0,-100.00,NW,305,0.0,2.0,95,0.01,,,0.05,63.000000,,2013-03-05 16:32:00,
2013-03-05 11:42:00,42.0,41.0,-100.00,NW,305,0.0,2.0,95,0.01,,,0.05,63.000000,,2013-03-05 16:42:00,
2013-03-05 11:52:00,42.0,41.0,-100.00,NW,305,0.0,2.0,95,0.01,,,0.05,63.000000,,2013-03-05 16:52:00,
2013-03-05 12:01:00,42.0,41.0,-100.00,NW,305,0.0,2.0,95,0.01,,,0.05,63.000000,,2013-03-05 17:01:00,
2013-03-05 12:32:00,44.0,43.0,-100.00,SE,126,2.0,3.0,95,0.00,,,0.05,132.000000,,2013-03-05 17:32:00,
2013-03-05 12:42:00,44.0,43.0,-100.00,SE,126,2.0,3.0,95,0.00,,,0.05,132.000000,,2013-03-05 17:42:00,
2013-03-05 12:53:00,44.0,43.0,-100.00,SE,126,2.0,3.0,95,0.00,,,0.05,132.000000,,2013-03-05 17:53:00,
2013-03-05 13:02:00,44.0,43.0,-100.00,SE,126,2.0,3.0,95,0.00,,,0.05,132.000000,,2013-03-05 18:02:00,
2013-03-05 13:32:00,46.0,42.0,-100.00,SW,233,1.0,4.0,86,0.00,,,0.05,179.000000,,2013-03-05 18:32:00,
2013-03-05 13:42:00,46.0,42.0,-100.00,SW,233,1.0,4.0,86,0.00,,,0.05,179.000000,,2013-03-05 18:42:00,
2013-03-05 13:53:00,46.0,42.0,-100.00,SW,233,1.0,4.0,86,0.00,,,0.05,179.000000,,2013-03-05 18:53:00,
2013-03-05 14:01:00,46.0,42.0,-100.00,SW,233,1.0,4.0,86,0.00,,,0.05,179.000000,,2013-03-05 19:01:00,
2013-03-05 14:32:00,47.0,42.0,-100.00,ESE,120,2.0,4.0,82,0.00,,,0.05,194.000000,,2013-03-05 19:32:00,
2013-03-05 14:42:00,47.0,42.0,-100.00,ESE,120,2.0,4.0,82,0.00,,,0.05,194.000000,,2013-03-05 19:42:00,
2013-03-05 14:52:00,47.0,42.0,-100.00,ESE,120,2.0,4.0,82,0.00,,,0.05,194.000000,,2013-03-05 19:52:00,
2013-03-05 15:01:00,47.0,42.0,-100.00,ESE,120,2.0,4.0,82,0.00,,,0.05,194.000000,,2013-03-05 20:01:00,
2013-03-05 15:32:00,48.0,43.0,-100.00,ESE,114,2.0,4.0,83,0.00,,,0.05,147.000000,,2013-03-05 20:32:00,
2013-03-05 15:42:00,48.0,43.0,-100.00,ESE,114,2.0,4.0,83,0.00,,,0.05,147.000000,,2013-03-05 20:42:00,
2013-03-05 15:52:00,48.0,43.0,-100.00,ESE,114,2.0,4.0,83,0.00,,,0.05,147.000000,,2013-03-05 20:52:00,
2013-03-05 16:02:00,48.0,43.0,-100.00,ESE,114,2.0,4.0,83,0.00,,,0.05,147.000000,,2013-03-05 21:02:00,
2013-03-05 16:32:00,48.0,42.0,-100.00,ESE,111,2.0,4.0,79,0.00,,,0.05,107.000000,,2013-03-05 21:32:00,
2013-03-05 16:42:00,48.0,42.0,-100.00,ESE,111,2.0,4.0,79,0.00,,,0.05,107.000000,,2013-03-05 21:42:00,
2013-03-05 16:52:00,48.0,42.0,-100.00,ESE,111,2.0,4.0,79,0.00,,,0.05,107.000000,,2013-03-05 21:52:00,
2013-03-05 17:01:00,48.0,42.0,-100.00,ESE,111,2.0,4.0,79,0.00,,,0.05,107.000000,,2013-03-05 22:01:00,
2013-03-05 17:32:00,45.0,44.0,-100.00,NNW,345,2.0,5.0,96,0.12,,,0.17,22.000000,,2013-03-05 22:32:00,
2013-03-05 17:42:00,45.0,44.0,-100.00,NNW,345,2.0,5.0,96,0.12,,,0.17,22.000000,,2013-03-05 22:42:00,
2013-03-05 17:52:00,45.0,44.0,-100.00,NNW,345,2.0,5.0,96,0.12,,,0.17,22.000000,,2013-03-05 22:52:00,
2013-03-05 18:01:00,45.0,44.0,-100.00,NNW,345,2.0,5.0,96,0.12,,,0.17,22.000000,,2013-03-05 23:01:00,
2013-03-05 18:32:00,47.0,46.0,-100.00,WNW,297,4.0,10.0,98,0.35,,,0.52,5.000000,,2013-03-05 23:32:00,
2013-03-05 18:42:00,47.0,46.0,-100.00,WNW,297,4.0,10.0,98,0.35,,,0.52,5.000000,,2013-03-05 23:42:00,
2013-03-05 18:53:00,47.0,46.0,-100.00,WNW,297,4.0,10.0,98,0.35,,,0.52,5.000000,,2013-03-05 23:53:00,
2013-03-05 19:02:00,47.0,46.0,-100.00,WNW,297,4.0,10.0,98,0.35,,,0.52,5.000000,,2013-03-06 00:02:00,
2013-03-05 19:32:00,47.0,47.0,-100.00,West,261,3.0,6.0,99,0.01,,,0.53,9.000000,,2013-03-06 00:32:00,
2013-03-05 19:42:00,47.0,47.0,-100.00,West,261,3.0,6.0,99,0.01,,,0.53,9.000000,,2013-03-06 00:42:00,
2013-03-05 19:52:00,47.0,47.0,-100.00,West,261,3.0,6.0,99,0.01,,,0.53,9.000000,,2013-03-06 00:52:00,
2013-03-05 20:02:00,47.0,47.0,-100.00,West,261,3.0,6.0,99,0.01,,,0.53,9.000000,,2013-03-06 01:02:00,
2013-03-05 20:32:00,47.0,47.0,-100.00,West,269,4.0,6.0,99,0.00,,,-99.99,0.000000,,2013-03-06 01:32:00,
2013-03-05 20:42:00,47.0,47.0,-100.00,West,269,4.0,6.0,99,0.00,,,-99.99,0.000000,,2013-03-06 01:42:00,
2013-03-05 20:52:00,47.0,47.0,-100.00,West,269,4.0,6.0,99,0.00,,,-99.99,0.000000,,2013-03-06 01:52:00,
2013-03-05 21:01:00,47.0,47.0,-100.00,West,269,4.0,6.0,99,0.00,,,-99.99,0.000000,,2013-03-06 02:01:00,
2013-03-05 21:32:00,44.0,38.0,-100.00,West,263,6.0,11.0,80,0.00,,,0.53,0.000000,,2013-03-06 02:32:00,
2013-03-05 21:42:00,44.0,38.0,-100.00,West,263,6.0,11.0,80,0.00,,,0.53,0.000000,,2013-03-06 02:42:00,
2013-03-05 21:52:00,44.0,38.0,-100.00,West,263,6.0,11.0,80,0.00,,,0.53,0.000000,,2013-03-06 02:52:00,
2013-03-05 22:02:00,44.0,38.0,-100.00,West,263,6.0,11.0,80,0.00,,,0.53,0.000000,,2013-03-06 03:02:00,
2013-03-05 22:32:00,40.0,33.0,-100.00,West,266,7.0,16.0,77,0.00,,,0.53,0.000000,,2013-03-06 03:32:00,
2013-03-05 22:42:00,40.0,33.0,-100.00,West,266,7.0,16.0,77,0.00,,,0.53,0.000000,,2013-03-06 03:42:00,
2013-03-05 22:53:00,40.0,33.0,-100.00,West,266,7.0,16.0,77,0.00,,,0.53,0.000000,,2013-03-06 03:53:00,
2013-03-05 23:02:00,40.0,33.0,-100.00,West,266,7.0,16.0,77,0.00,,,0.53,0.000000,,2013-03-06 04:02:00,
2013-03-05 23:32:00,36.0,27.0,-100.00,West,265,4.0,13.0,70,0.00,,,0.53,0.000000,,2013-03-06 04:32:00,
2013-03-05 23:42:00,36.0,27.0,-100.00,West,265,4.0,13.0,70,0.00,,,0.53,0.000000,,2013-03-06 04:42:00,
2013-03-05 23:52:00,36.0,27.0,-100.00,West,265,4.0,13.0,70,0.00,,,0.53,0.000000,,2013-03-06 04:52:00,